Time;durP1;ratioP1;P1;durP2;ratioP2;P2;SDS_P1;SDS_P2;PMS_P1;PMS_P2;Temp;Humidity;BMP_temperature;BMP_pressure;BME280_temperature;BME280_humidity;BME280_pressure;Samples;Min_cycle;Max_cycle;Signal;HPM_P1;HPM_P2
2023/01/28 00:00:35;;;;;;;5.30;3.67;;;;;;;2.82;76.24;98724.75;5049016;28;20051;-83
2023/01/28 00:03:00;;;;;;;5.53;3.70;;;;;;;2.80;76.54;98724.88;5048066;28;20036;-83
2023/01/28 00:05:28;;;;;;;6.50;4.30;;;;;;;2.86;76.53;98716.56;5044075;28;20102;-83
2023/01/28 00:07:54;;;;;;;6.57;4.15;;;;;;;2.86;76.78;98726.94;5046121;28;20100;-83
2023/01/28 00:10:19;;;;;;;5.72;4.03;;;;;;;2.81;76.71;98718.75;5049168;28;20496;-83
2023/01/28 00:12:45;;;;;;;8.32;4.60;;;;;;;2.72;76.48;98716.97;5049138;28;20510;-83
2023/01/28 00:15:11;;;;;;;7.88;4.20;;;;;;;2.67;77.11;98716.56;5046885;28;20469;-83
2023/01/28 00:17:37;;;;;;;6.07;3.97;;;;;;;2.67;77.41;98711.38;5044182;28;20036;-82
2023/01/28 00:20:04;;;;;;;7.10;4.30;;;;;;;2.62;77.26;98719.53;5043290;28;20045;-83
2023/01/28 00:22:30;;;;;;;6.40;4.20;;;;;;;2.64;77.86;98717.66;5031291;28;20751;-83
2023/01/28 00:24:56;;;;;;;5.95;4.20;;;;;;;2.68;77.36;98715.59;5048757;28;20049;-83
2023/01/28 00:27:21;;;;;;;6.97;4.25;;;;;;;2.58;77.15;98718.19;5050788;28;20104;-83
2023/01/28 00:29:47;;;;;;;8.32;4.95;;;;;;;2.48;77.42;98711.34;5050558;28;20458;-82
2023/01/28 00:32:13;;;;;;;8.95;4.80;;;;;;;2.39;77.78;98715.53;5049833;28;20109;-82
2023/01/28 00:34:39;;;;;;;7.78;4.82;;;;;;;2.41;77.94;98713.66;5052647;28;20033;-83
2023/01/28 00:37:05;;;;;;;7.22;4.85;;;;;;;2.48;78.50;98713.94;5052234;28;20119;-83
2023/01/28 00:39:30;;;;;;;6.90;4.80;;;;;;;2.45;78.05;98714.19;5046571;28;20116;-82
2023/01/28 00:41:56;;;;;;;7.80;4.90;;;;;;;2.44;78.25;98720.31;5051636;28;20094;-83
2023/01/28 00:44:22;;;;;;;9.43;5.30;;;;;;;2.45;78.43;98714.19;5051936;28;20046;-83
2023/01/28 00:46:47;;;;;;;6.43;4.07;;;;;;;2.52;78.85;98712.72;5051599;28;20468;-83
2023/01/28 00:49:13;;;;;;;9.98;5.05;;;;;;;2.54;78.56;98721.19;5053101;28;20079;-84
2023/01/28 00:51:38;;;;;;;9.23;5.40;;;;;;;2.62;78.47;98718.72;5051054;28;20028;-84
2023/01/28 00:54:04;;;;;;;6.45;4.57;;;;;;;2.66;78.52;98722.69;5051954;28;20063;-83
2023/01/28 00:56:30;;;;;;;8.48;4.88;;;;;;;2.71;77.97;98723.13;5051569;28;20085;-84
2023/01/28 00:58:56;;;;;;;8.93;5.97;;;;;;;2.63;78.05;98721.19;5051341;28;20036;-84
2023/01/28 01:01:26;;;;;;;8.85;5.22;;;;;;;2.74;78.21;98727.19;5048014;28;20401;-84
2023/01/28 01:04:01;;;;;;;8.37;4.77;;;;;;;2.72;78.64;98727.34;5047539;28;20029;-84
2023/01/28 01:06:34;;;;;;;7.22;4.60;;;;;;;2.79;78.43;98730.22;5026173;28;20443;-84
2023/01/28 01:09:00;;;;;;;8.18;5.50;;;;;;;2.77;78.08;98727.75;5051688;28;20431;-84
2023/01/28 01:11:26;;;;;;;11.18;5.72;;;;;;;2.67;77.89;98727.75;5047654;28;20032;-83
2023/01/28 01:13:58;;;;;;;8.88;4.90;;;;;;;2.70;78.35;98731.84;5051850;28;20151;-84
2023/01/28 01:16:26;;;;;;;;;;;;;;;2.65;78.19;98736.59;5051918;28;20037;-83
2023/01/28 01:18:53;;;;;;;8.38;5.03;;;;;;;2.54;77.28;98731.53;5051748;28;19908;-83
2023/01/28 01:21:23;;;;;;;9.45;5.18;;;;;;;2.56;77.65;98732.22;5051647;28;20099;-84
2023/01/28 01:23:49;;;;;;;9.55;5.75;;;;;;;2.50;77.99;98728.38;5050126;28;20091;-84
2023/01/28 01:26:15;;;;;;;11.13;6.00;;;;;;;2.55;78.01;98730.59;5046627;28;20393;-84
2023/01/28 01:28:41;;;;;;;10.48;6.03;;;;;;;2.40;77.76;98730.97;5050271;28;20021;-83
2023/01/28 01:31:13;;;;;;;11.68;6.70;;;;;;;2.44;78.28;98738.44;5049456;28;20025;-83
2023/01/28 01:33:41;;;;;;;10.07;5.75;;;;;;;2.45;78.56;98730.53;5049764;28;20060;-81
2023/01/28 01:36:08;;;;;;;11.82;6.60;;;;;;;2.36;78.16;98733.94;5047060;28;20071;-81
2023/01/28 01:38:35;;;;;;;9.05;5.93;;;;;;;2.30;78.18;98737.88;5031431;28;20445;-81
2023/01/28 01:41:03;;;;;;;11.85;6.57;;;;;;;2.19;78.49;98732.78;5048211;28;20497;-81
2023/01/28 01:43:56;;;;;;;10.13;5.95;;;;;;;2.29;79.16;98743.19;5049591;28;20035;-81
2023/01/28 01:46:40;;;;;;;12.32;6.00;;;;;;;2.19;78.95;98739.75;5050043;28;20098;-81
2023/01/28 01:49:18;;;;;;;12.57;6.60;;;;;;;2.30;78.56;98752.59;5046576;28;20036;-81
2023/01/28 01:51:50;;;;;;;12.50;6.97;;;;;;;2.18;78.52;98738.91;5049646;28;20032;-81
2023/01/28 01:54:18;;;;;;;12.10;6.78;;;;;;;2.27;78.64;98753.66;5034229;28;20049;-82
2023/01/28 01:56:47;;;;;;;12.05;7.15;;;;;;;2.29;78.80;98756.13;5049912;28;20036;-82
2023/01/28 01:59:21;;;;;;;12.90;7.30;;;;;;;2.18;78.54;98762.22;5049582;28;20029;-82
2023/01/28 02:01:47;;;;;;;13.40;6.53;;;;;;;2.10;78.72;98749.94;5048546;28;20041;-82
2023/01/28 02:04:26;;;;;;;13.18;7.07;;;;;;;2.30;79.17;98758.59;5049539;28;20032;-82
2023/01/28 02:06:51;;;;;;;13.77;7.22;;;;;;;2.32;78.87;98750.69;5049179;28;20040;-82
2023/01/28 02:09:37;;;;;;;13.23;7.47;;;;;;;2.27;78.55;98756.25;5050040;28;20037;-82
2023/01/28 02:12:15;;;;;;;12.95;7.10;;;;;;;2.21;78.60;98746.41;5047732;28;20051;-81
2023/01/28 02:14:56;;;;;;;13.70;6.47;;;;;;;2.27;78.74;98755.44;5047213;28;20040;-82
2023/01/28 02:17:23;;;;;;;11.38;6.35;;;;;;;2.29;78.52;98754.38;5048705;28;20087;-82
2023/01/28 02:20:09;;;;;;;13.43;7.45;;;;;;;2.14;78.42;98755.66;5031787;28;20067;-82
2023/01/28 02:23:03;;;;;;;14.60;7.50;;;;;;;2.23;78.87;98749.72;5046227;28;20047;-82
2023/01/28 02:25:59;;;;;;;12.38;7.22;;;;;;;2.25;79.11;98757.34;5048347;28;20037;-82
2023/01/28 02:28:48;;;;;;;12.27;6.60;;;;;;;2.36;79.02;98749.47;5047839;28;20186;-82
2023/01/28 02:31:26;;;;;;;14.52;7.20;;;;;;;2.46;78.67;98754.66;5046635;28;20499;-82
2023/01/28 02:34:17;;;;;;;11.02;6.88;;;;;;;2.47;78.34;98748.56;5049107;28;20112;-82
2023/01/28 02:36:52;;;;;;;12.80;6.72;;;;;;;2.45;78.39;98747.84;5048917;28;20040;-82
2023/01/28 02:39:25;;;;;;;16.05;7.78;;;;;;;2.44;78.18;98752.22;5048744;28;20358;-82
2023/01/28 02:42:05;;;;;;;14.40;7.45;;;;;;;2.53;78.38;98760.97;5048696;28;20800;-82
2023/01/28 02:44:32;;;;;;;13.88;7.45;;;;;;;2.48;77.95;98757.97;5048302;28;20523;-82
2023/01/28 02:49:50;;;;;;;12.25;6.75;;;;;;;2.50;78.38;98753.47;5047596;28;20039;-82
2023/01/28 02:55:38;;;;;;;14.75;7.05;;;;;;;2.55;78.76;98764.25;5048163;28;20068;-82
2023/01/28 02:58:45;;;;;;;13.85;7.07;;;;;;;2.54;78.67;98771.19;5047693;28;20090;-82
2023/01/28 03:01:35;;;;;;;15.82;7.70;;;;;;;2.50;78.27;98771.59;5047298;28;20045;-82
2023/01/28 03:04:33;;;;;;;14.30;7.90;;;;;;;2.34;78.04;98762.56;5048132;28;20067;-82
2023/01/28 03:07:06;;;;;;;15.23;7.88;;;;;;;2.34;78.31;98767.75;5047781;28;20926;-82
2023/01/28 03:09:34;;;;;;;14.20;7.35;;;;;;;2.16;78.91;98764.13;5047929;28;20064;-82
2023/01/28 03:38:40;;;;;;;15.10;7.28;;;;;;;2.21;79.18;98787.81;5047377;28;20037;-82
2023/01/28 03:41:10;;;;;;;15.07;7.68;;;;;;;2.23;79.27;98788.53;5029996;28;20187;-81
2023/01/28 03:43:35;;;;;;;12.45;7.38;;;;;;;2.26;79.13;98796.03;5047189;28;20057;-82
2023/01/28 03:46:05;;;;;;;15.10;7.80;;;;;;;2.31;79.50;98798.22;5048210;28;20060;-82
2023/01/28 03:48:31;;;;;;;14.48;8.07;;;;;;;2.37;79.39;98790.75;5048022;28;20086;-82
2023/01/28 03:51:00;;;;;;;16.05;7.63;;;;;;;2.43;79.56;98794.59;5047869;28;20106;-82
2023/01/28 03:53:27;;;;;;;16.90;8.63;;;;;;;2.37;79.16;98803.69;5046978;28;20037;-83
2023/01/28 03:55:55;;;;;;;15.45;8.50;;;;;;;2.36;78.98;98791.72;5048253;28;20488;-82
2023/01/28 03:58:25;;;;;;;15.43;7.82;;;;;;;2.44;78.74;98796.22;5048428;28;20029;-82
2023/01/28 04:00:53;;;;;;;17.95;8.23;;;;;;;2.51;79.19;98797.34;5049287;28;20033;-82
2023/01/28 04:03:20;;;;;;;18.23;8.30;;;;;;;2.62;79.10;98801.59;5052048;28;20040;-82
2023/01/28 04:06:08;;;;;;;17.48;8.63;;;;;;;2.66;78.79;98798.63;5051103;28;20039;-81
2023/01/28 04:08:34;;;;;;;14.68;8.27;;;;;;;2.66;78.31;98810.75;5033705;28;20116;-82
2023/01/28 04:11:14;;;;;;;16.58;7.90;;;;;;;2.66;78.41;98808.16;5051678;28;20041;-82
2023/01/28 04:13:44;;;;;;;17.38;9.00;;;;;;;2.63;78.61;98818.78;5050687;28;20094;-82
2023/01/28 04:16:12;;;;;;;15.90;8.05;;;;;;;2.54;78.69;98814.41;5051429;28;20528;-82
2023/01/28 04:18:38;;;;;;;16.23;8.60;;;;;;;2.55;78.89;98810.84;5050779;28;20067;-82
2023/01/28 04:21:04;;;;;;;16.33;8.38;;;;;;;2.55;79.06;98811.66;5051124;28;20825;-82
2023/01/28 04:23:30;;;;;;;17.85;8.73;;;;;;;2.54;78.92;98811.81;5051664;28;20396;-82
2023/01/28 04:25:56;;;;;;;17.88;9.20;;;;;;;2.54;79.14;98814.41;5050162;28;20037;-82
2023/01/28 04:28:22;;;;;;;20.30;9.30;;;;;;;2.61;79.16;98818.09;5051570;28;20120;-82
2023/01/28 04:30:47;;;;;;;18.83;10.35;;;;;;;2.49;79.12;98826.91;5051039;28;20029;-82
2023/01/28 04:33:14;;;;;;;17.83;9.60;;;;;;;2.60;79.78;98834.59;5049048;28;20033;-82
2023/01/28 04:35:40;;;;;;;16.50;8.55;;;;;;;2.64;79.58;98825.63;5050231;28;20151;-82
2023/01/28 04:38:05;;;;;;;17.40;8.73;;;;;;;2.71;79.65;98831.91;5049861;28;20044;-82
2023/01/28 04:40:31;;;;;;;18.25;9.20;;;;;;;2.69;79.33;98823.44;5051070;28;20040;-82
2023/01/28 04:42:57;;;;;;;15.23;8.23;;;;;;;2.74;79.28;98821.28;5050695;28;20083;-82
2023/01/28 04:45:23;;;;;;;16.60;8.70;;;;;;;2.74;79.14;98826.44;5051740;28;20049;-82
2023/01/28 04:47:49;;;;;;;19.30;8.93;;;;;;;2.72;79.20;98823.19;5051442;28;20033;-82
2023/01/28 04:50:15;;;;;;;17.92;8.90;;;;;;;2.68;79.23;98816.63;5051063;28;20079;-82
2023/01/28 04:52:40;;;;;;;17.25;9.38;;;;;;;2.67;79.01;98825.34;5051071;28;20094;-82
2023/01/28 04:55:07;;;;;;;17.50;8.63;;;;;;;2.72;79.40;98835.31;5049603;28;20045;-82
2023/01/28 04:57:32;;;;;;;14.85;8.15;;;;;;;2.74;79.02;98829.03;5051130;28;20064;-82
2023/01/28 04:59:58;;;;;;;17.42;8.18;;;;;;;2.67;79.21;98830.53;5050993;28;20063;-81
2023/01/28 05:02:23;;;;;;;17.00;8.82;;;;;;;2.58;79.42;98837.31;5051180;28;20043;-82
2023/01/28 05:04:49;;;;;;;17.83;8.75;;;;;;;2.62;79.55;98823.13;5050826;28;20037;-82
2023/01/28 05:07:14;;;;;;;17.83;8.90;;;;;;;2.64;79.43;98828.22;5050910;28;20104;-82
2023/01/28 05:09:40;;;;;;;17.45;8.30;;;;;;;2.61;79.66;98828.47;5050077;28;20036;-82
2023/01/28 05:12:06;;;;;;;16.67;8.77;;;;;;;2.53;79.71;98833.47;5047978;28;20499;-82
2023/01/28 05:14:31;;;;;;;21.65;9.23;;;;;;;2.58;80.07;98826.13;5050855;28;20412;-82
2023/01/28 05:16:57;;;;;;;13.27;7.43;;;;;;;2.61;80.10;98823.28;5050321;28;20115;-82
2023/01/28 05:19:22;;;;;;;17.15;9.18;;;;;;;2.65;80.59;98827.25;5050650;28;20036;-82
2023/01/28 05:21:48;;;;;;;17.30;8.90;;;;;;;2.69;80.19;98828.63;5048610;28;20040;-82
2023/01/28 05:24:14;;;;;;;19.80;9.55;;;;;;;2.73;80.16;98835.19;5050591;28;20119;-82
2023/01/28 05:26:40;;;;;;;19.23;8.45;;;;;;;2.75;79.88;98833.25;5050157;28;20033;-82
2023/01/28 05:29:06;;;;;;;17.55;8.52;;;;;;;2.75;79.81;98825.50;5049295;28;20033;-82
2023/01/28 05:31:31;;;;;;;19.30;8.95;;;;;;;2.68;79.80;98824.38;5046926;28;20562;-82
2023/01/28 05:33:57;;;;;;;17.55;8.60;;;;;;;2.71;80.14;98826.72;5050455;28;20036;-82
2023/01/28 05:36:23;;;;;;;18.92;9.20;;;;;;;2.70;80.09;98835.47;5050713;28;20125;-82
2023/01/28 05:38:48;;;;;;;15.75;7.78;;;;;;;2.73;80.03;98835.19;5031937;28;20369;-82
2023/01/28 05:41:14;;;;;;;16.20;8.07;;;;;;;2.76;80.21;98840.13;5049754;28;20048;-82
2023/01/28 05:43:39;;;;;;;17.90;8.65;;;;;;;2.76;79.68;98840.13;5049884;28;20044;-82
2023/01/28 05:46:05;;;;;;;16.60;7.90;;;;;;;2.79;79.91;98839.84;5050086;28;20032;-82
2023/01/28 05:48:30;;;;;;;16.50;8.40;;;;;;;2.80;79.30;98846.66;5049745;28;20041;-82
2023/01/28 05:50:56;;;;;;;15.77;8.45;;;;;;;2.80;79.89;98840.66;5048635;28;20043;-82
2023/01/28 05:53:21;;;;;;;18.00;8.20;;;;;;;2.83;80.19;98848.16;5050010;28;20048;-83
2023/01/28 05:55:50;;;;;;;14.48;8.05;;;;;;;2.76;79.80;98840.13;5049446;28;20943;-82
2023/01/28 05:58:16;;;;;;;16.10;8.40;;;;;;;2.79;79.79;98846.78;5049572;28;20033;-82
2023/01/28 06:00:42;;;;;;;16.00;8.00;;;;;;;2.75;79.72;98851.41;5048953;28;20048;-82
2023/01/28 06:03:07;;;;;;;13.80;7.30;;;;;;;2.74;79.67;98852.34;5031439;28;20040;-82
2023/01/28 06:05:33;;;;;;;14.43;7.13;;;;;;;2.76;79.60;98855.66;5049510;28;20029;-82
2023/01/28 06:07:58;;;;;;;15.68;7.75;;;;;;;2.74;79.56;98852.34;5049489;28;20122;-82
2023/01/28 06:10:24;;;;;;;14.80;7.85;;;;;;;2.66;80.06;98854.78;5049391;28;20073;-82
2023/01/28 06:12:49;;;;;;;17.10;7.68;;;;;;;2.55;79.93;98853.09;5049494;28;20024;-82
2023/01/28 06:15:15;;;;;;;15.57;7.18;;;;;;;2.59;80.62;98846.72;5049521;28;20167;-82
2023/01/28 06:17:41;;;;;;;13.57;7.13;;;;;;;2.68;80.42;98858.88;5049321;28;20052;-82
2023/01/28 06:20:07;;;;;;;14.55;7.47;;;;;;;2.67;80.12;98854.66;5048053;28;20139;-82
2023/01/28 06:22:33;;;;;;;15.63;7.63;;;;;;;2.74;80.26;98870.50;5049265;28;20392;-82
2023/01/28 06:24:59;;;;;;;15.70;7.85;;;;;;;2.75;80.40;98869.53;5048424;28;20037;-82
2023/01/28 06:27:24;;;;;;;15.38;6.97;;;;;;;2.80;80.66;98872.56;5049416;28;20060;-82
2023/01/28 06:29:50;;;;;;;14.57;7.03;;;;;;;2.85;80.57;98870.41;5049461;28;20555;-82
2023/01/28 06:32:15;;;;;;;13.80;6.88;;;;;;;2.87;80.19;98865.06;5031175;28;20128;-82
2023/01/28 06:34:41;;;;;;;14.18;6.75;;;;;;;2.90;80.26;98882.97;5049193;28;20033;-82
2023/01/28 06:37:06;;;;;;;12.68;7.63;;;;;;;2.86;80.10;98879.81;5048825;28;20050;-82
2023/01/28 06:39:32;;;;;;;15.38;7.45;;;;;;;2.89;80.47;98873.56;5048580;28;20083;-82
2023/01/28 06:41:59;;;;;;;14.90;7.32;;;;;;;2.88;80.08;98885.69;5049283;28;20025;-82
2023/01/28 06:44:24;;;;;;;14.50;7.63;;;;;;;2.89;80.53;98892.50;5031206;28;20397;-82
2023/01/28 06:46:50;;;;;;;14.43;7.00;;;;;;;2.84;80.15;98884.31;5048958;28;20112;-82
2023/01/28 06:49:16;;;;;;;14.93;7.30;;;;;;;2.83;80.08;98900.81;5049089;28;20033;-82
2023/01/28 06:51:41;;;;;;;15.07;7.78;;;;;;;2.89;80.12;98897.69;5048622;28;20033;-82
2023/01/28 06:54:07;;;;;;;14.77;7.55;;;;;;;2.90;80.31;98903.69;5047897;28;20052;-81
2023/01/28 06:56:33;;;;;;;13.35;6.85;;;;;;;2.93;80.14;98901.63;5048405;28;20075;-81
2023/01/28 06:58:58;;;;;;;13.75;7.18;;;;;;;2.92;80.31;98912.16;5048156;28;20082;-81
2023/01/28 07:01:24;;;;;;;14.57;7.53;;;;;;;2.92;80.48;98904.38;5048114;28;20043;-81
2023/01/28 07:03:49;;;;;;;14.70;7.63;;;;;;;2.92;79.98;98907.78;5048417;28;20532;-82
2023/01/28 07:06:15;;;;;;;13.15;7.10;;;;;;;2.76;80.29;98907.47;5048530;28;20578;-82
2023/01/28 07:08:41;;;;;;;15.68;7.40;;;;;;;2.73;80.77;98907.72;5048221;28;20044;-82
2023/01/28 07:11:06;;;;;;;13.45;7.13;;;;;;;2.76;81.10;98912.66;5048234;28;20049;-82
2023/01/28 07:13:32;;;;;;;12.80;7.20;;;;;;;2.84;81.43;98920.56;5048082;28;20037;-82
2023/01/28 07:15:58;;;;;;;14.32;8.30;;;;;;;2.91;81.15;98918.28;5048585;28;20033;-82
2023/01/28 07:18:23;;;;;;;14.63;6.70;;;;;;;2.94;81.14;98924.03;5048749;28;20048;-82
2023/01/28 07:20:49;;;;;;;12.52;6.97;;;;;;;2.99;81.09;98917.63;5045458;28;20036;-82
2023/01/28 07:23:14;;;;;;;13.48;6.35;;;;;;;2.92;80.89;98925.91;5038309;28;20036;-82
2023/01/28 07:25:40;;;;;;;13.23;6.85;;;;;;;2.98;81.40;98928.94;5048150;28;20115;-81
2023/01/28 07:28:06;;;;;;;12.13;7.20;;;;;;;2.93;80.48;98914.59;5047909;28;20040;-81
2023/01/28 07:30:32;;;;;;;11.95;6.28;;;;;;;2.88;81.06;98921.16;5047298;28;20205;-82
2023/01/28 07:32:59;;;;;;;11.50;5.97;;;;;;;2.92;81.59;98923.31;5044792;28;20037;-82
2023/01/28 07:35:25;;;;;;;12.77;6.35;;;;;;;2.96;81.36;98929.06;5030647;28;20033;-82
2023/01/28 07:37:57;;;;;;;11.60;6.60;;;;;;;2.97;81.49;98925.53;5051962;28;20116;-82
2023/01/28 07:40:24;;;;;;;11.70;6.35;;;;;;;2.99;81.68;98930.56;5050664;28;20033;-82
2023/01/28 07:42:51;;;;;;;12.77;6.75;;;;;;;3.01;81.58;98933.88;5050428;28;20025;-82
2023/01/28 07:45:17;;;;;;;13.00;6.43;;;;;;;2.90;81.13;98930.41;5049055;28;20367;-82
2023/01/28 07:47:42;;;;;;;9.93;5.68;;;;;;;2.82;80.80;98939.78;5033070;28;20040;-82
2023/01/28 07:50:10;;;;;;;15.15;6.93;;;;;;;2.75;80.60;98930.88;5050150;28;20048;-82
2023/01/28 07:52:43;;;;;;;8.50;5.18;;;;;;;2.72;81.14;98939.75;5050401;28;20021;-82
2023/01/28 07:55:11;;;;;;;11.98;6.05;;;;;;;2.72;80.81;98934.56;5049002;28;20056;-82
2023/01/28 07:57:37;;;;;;;9.65;5.25;;;;;;;2.73;80.49;98935.38;5033109;28;20033;-82
2023/01/28 08:00:03;;;;;;;8.30;4.97;;;;;;;2.62;79.56;98937.09;5050204;28;20044;-82
2023/01/28 08:02:29;;;;;;;7.75;4.07;;;;;;;2.75;80.28;98939.47;5050204;28;20029;-82
2023/01/28 08:04:58;;;;;;;8.00;5.05;;;;;;;2.81;79.67;98948.50;5051359;28;20043;-82
2023/01/28 08:07:24;;;;;;;9.45;4.22;;;;;;;2.58;78.82;98942.66;5052228;28;20120;-82
2023/01/28 08:09:50;;;;;;;7.40;4.10;;;;;;;2.75;79.65;98942.06;5051868;28;20129;-82
2023/01/28 08:12:16;;;;;;;6.88;4.13;;;;;;;2.81;79.21;98946.72;5051798;28;20065;-82
2023/01/28 08:14:41;;;;;;;5.40;3.70;;;;;;;2.82;78.46;98938.03;5051519;28;20079;-82
2023/01/28 08:17:07;;;;;;;6.03;3.83;;;;;;;2.89;78.02;98943.50;5050304;28;20033;-82
2023/01/28 08:19:32;;;;;;;4.85;3.38;;;;;;;2.95;77.64;98948.19;5051408;28;20119;-82
2023/01/28 08:21:58;;;;;;;5.95;3.53;;;;;;;2.93;76.55;98947.47;5033409;28;20064;-82
2023/01/28 08:24:23;;;;;;;3.97;3.08;;;;;;;2.92;76.73;98943.25;5051917;28;20103;-81
2023/01/28 08:26:48;;;;;;;4.93;3.20;;;;;;;2.93;75.83;98950.06;5051795;28;20108;-82
2023/01/28 08:29:14;;;;;;;4.97;3.25;;;;;;;3.06;76.81;98949.81;5051218;28;20028;-82
2023/01/28 08:31:39;;;;;;;5.13;3.20;;;;;;;3.17;77.19;98941.97;5048211;28;20109;-82
2023/01/28 08:34:05;;;;;;;4.72;3.17;;;;;;;3.17;74.90;98952.31;5051217;28;20061;-82
2023/01/28 08:36:30;;;;;;;4.13;2.88;;;;;;;3.05;75.12;98951.59;5051510;28;20124;-82
2023/01/28 08:38:56;;;;;;;4.95;3.10;;;;;;;3.01;75.79;98962.38;5051351;28;20056;-82
2023/01/28 08:41:22;;;;;;;3.92;2.50;;;;;;;2.97;76.18;98958.41;5051438;28;20073;-82
2023/01/28 08:43:48;;;;;;;3.70;2.83;;;;;;;3.16;76.22;98961.88;5050940;28;20068;-82
2023/01/28 08:46:14;;;;;;;5.22;2.95;;;;;;;3.31;76.32;98958.94;5050512;28;20064;-82
2023/01/28 08:48:40;;;;;;;5.07;3.10;;;;;;;3.35;74.45;98950.75;5049739;28;20500;-82
2023/01/28 08:51:05;;;;;;;6.75;4.00;;;;;;;3.29;74.01;98958.22;5032767;28;20017;-82
2023/01/28 08:53:32;;;;;;;4.80;3.28;;;;;;;3.05;73.99;98961.16;5050949;28;20102;-82
2023/01/28 08:55:58;;;;;;;4.93;3.00;;;;;;;3.13;75.14;98967.34;5051222;28;20025;-82
2023/01/28 08:58:23;;;;;;;4.50;3.15;;;;;;;3.07;74.81;98961.88;5051476;28;20080;-81
2023/01/28 09:00:49;;;;;;;5.35;3.28;;;;;;;3.32;75.74;98956.22;5050528;28;20090;-82
2023/01/28 09:03:17;;;;;;;4.72;2.40;;;;;;;3.24;74.17;98961.25;5050317;28;20116;-81
2023/01/28 09:05:43;;;;;;;5.25;3.80;;;;;;;3.38;74.48;98960.88;5050507;28;20045;-82
2023/01/28 09:08:13;;;;;;;5.55;3.22;;;;;;;3.20;73.58;98963.25;5050740;28;20431;-81
2023/01/28 09:10:40;;;;;;;4.57;3.15;;;;;;;3.18;73.68;98966.94;5049729;28;20041;-82
2023/01/28 09:13:13;;;;;;;5.10;3.30;;;;;;;3.31;74.44;98959.75;5050790;28;20039;-81
2023/01/28 09:15:39;;;;;;;5.60;2.97;;;;;;;3.28;73.60;98961.78;5049832;28;20044;-82
2023/01/28 09:18:05;;;;;;;3.60;2.72;;;;;;;3.33;73.22;98975.19;5050485;28;20044;-82
2023/01/28 09:20:31;;;;;;;3.25;2.33;;;;;;;3.11;71.83;98973.59;5051061;28;20041;-82
2023/01/28 09:22:58;;;;;;;4.80;2.50;;;;;;;3.15;73.00;98977.56;5049999;28;20029;-81
2023/01/28 09:25:24;;;;;;;3.45;2.35;;;;;;;3.15;71.75;98965.44;5050949;28;20059;-82
2023/01/28 09:27:49;;;;;;;4.45;2.58;;;;;;;3.49;71.99;98978.91;5050523;28;20116;-82
2023/01/28 09:30:15;;;;;;;2.53;2.13;;;;;;;3.55;70.68;98984.53;5050011;28;20116;-82
2023/01/28 09:32:41;;;;;;;3.83;2.60;;;;;;;3.61;69.73;98977.03;5049049;28;20029;-82
2023/01/28 09:35:07;;;;;;;2.92;2.45;;;;;;;3.52;69.09;98987.38;5050351;28;20045;-81
2023/01/28 09:37:32;;;;;;;3.95;1.88;;;;;;;3.51;70.08;98993.50;5050068;28;20037;-81
2023/01/28 09:39:58;;;;;;;4.40;2.40;;;;;;;3.27;68.47;98994.66;5049609;28;20484;-82
2023/01/28 09:43:28;;;;;;;3.10;2.13;;;;;;;3.25;68.51;99001.75;5050390;28;20048;-82
2023/01/28 09:46:03;;;;;;;1.90;1.73;;;;;;;3.20;68.94;98996.97;4951377;28;20043;-81
2023/01/28 09:48:37;;;;;;;2.03;1.63;;;;;;;3.34;68.84;99000.97;5049107;28;20477;-82
2023/01/28 09:51:10;;;;;;;3.15;2.00;;;;;;;3.55;70.16;99006.09;5048958;28;20404;-82
2023/01/28 09:53:46;;;;;;;3.22;2.35;;;;;;;3.65;69.08;99009.50;5050017;28;20040;-82
2023/01/28 09:56:24;;;;;;;2.10;1.73;;;;;;;3.70;67.56;99007.34;5050027;28;20031;-82
2023/01/28 09:58:50;;;;;;;2.15;1.60;;;;;;;3.46;66.64;99005.09;5048625;28;20396;-81
2023/01/28 10:01:37;;;;;;;2.75;1.98;;;;;;;3.28;66.49;99004.09;5049380;28;20033;-82
2023/01/28 10:04:22;;;;;;;3.13;1.85;;;;;;;3.39;67.47;99016.13;5048891;28;20423;-81
2023/01/28 10:07:18;;;;;;;4.53;2.15;;;;;;;3.44;67.71;99003.59;5031699;28;20025;-81
2023/01/28 10:09:50;;;;;;;2.00;1.65;;;;;;;3.48;67.64;99007.59;5049501;28;20057;-82
2023/01/28 10:12:48;;;;;;;2.10;1.70;;;;;;;3.45;66.46;99008.66;5049229;28;20463;-82
2023/01/28 10:15:42;;;;;;;2.20;1.70;;;;;;;3.82;67.85;99010.63;5049212;28;20650;-82
2023/01/28 10:18:10;;;;;;;2.80;2.00;;;;;;;3.63;65.38;99002.81;5049401;28;20033;-81
2023/01/28 10:21:19;;;;;;;2.55;1.60;;;;;;;3.65;66.89;98996.53;5049018;28;20454;-81
2023/01/28 10:24:02;;;;;;;2.75;1.88;;;;;;;3.73;66.87;98995.91;4964042;28;20050;-82
2023/01/28 10:26:41;;;;;;;3.75;2.20;;;;;;;3.70;66.45;98993.56;5043132;28;20099;-82
2023/01/28 10:29:22;;;;;;;2.97;1.98;;;;;;;3.63;66.71;98995.03;5048864;28;20037;-81
2023/01/28 10:32:04;;;;;;;2.42;1.83;;;;;;;3.80;67.35;98994.41;5044712;28;20041;-82
2023/01/28 10:34:30;;;;;;;5.90;1.92;;;;;;;4.07;67.31;98987.72;5048936;28;20037;-81
2023/01/28 10:36:57;;;;;;;3.85;2.17;;;;;;;3.88;64.93;98993.72;5048084;28;20091;-81
2023/01/28 10:39:25;;;;;;;4.57;2.30;;;;;;;3.83;65.17;98995.88;5049476;28;20045;-82
2023/01/28 10:41:51;;;;;;;2.20;1.95;;;;;;;3.92;65.06;98990.72;5030346;28;20116;-82
2023/01/28 10:44:30;;;;;;;3.55;2.35;;;;;;;3.87;64.58;98997.28;5049228;28;20107;-81
2023/01/28 10:47:03;;;;;;;2.72;1.95;;;;;;;4.03;65.87;98998.38;5048230;28;20032;-82
2023/01/28 10:49:31;;;;;;;2.47;1.92;;;;;;;3.95;64.35;99000.00;5049076;28;20120;-82
2023/01/28 10:51:57;;;;;;;4.30;2.30;;;;;;;3.82;64.05;98995.06;5048422;28;20370;-81
2023/01/28 10:54:27;;;;;;;2.17;1.98;;;;;;;3.91;65.31;99006.44;5048899;28;20183;-82
2023/01/28 10:57:11;;;;;;;4.35;2.90;;;;;;;3.85;65.23;99000.00;5048550;28;20048;-82
2023/01/28 10:59:40;;;;;;;3.53;2.40;;;;;;;3.51;65.07;99006.47;5048767;28;20024;-82
2023/01/28 11:02:31;;;;;;;2.63;2.10;;;;;;;3.44;65.71;99009.59;5048635;28;20032;-82
2023/01/28 11:05:05;;;;;;;4.60;2.63;;;;;;;3.43;66.61;99010.56;5048845;28;20120;-82
2023/01/28 11:07:32;;;;;;;5.75;2.97;;;;;;;3.64;68.25;99009.66;5048934;28;20028;-81
2023/01/28 11:09:58;;;;;;;3.33;2.40;;;;;;;3.44;66.09;98999.22;5048135;28;20127;-81
2023/01/28 11:12:29;;;;;;;3.75;2.70;;;;;;;3.63;65.85;99001.06;5049001;28;20120;-82
2023/01/28 11:15:04;;;;;;;3.63;2.53;;;;;;;3.76;66.80;99000.78;5047666;28;20148;-82
2023/01/28 11:17:36;;;;;;;3.78;2.80;;;;;;;3.71;65.57;99001.19;5047433;28;20041;-82
2023/01/28 11:20:18;;;;;;;3.17;2.65;;;;;;;3.82;65.77;99008.03;5047683;28;20029;-81
2023/01/28 11:22:44;;;;;;;4.32;2.80;;;;;;;3.88;66.70;99010.09;5046871;28;20037;-81
2023/01/28 11:25:36;;;;;;;4.20;2.38;;;;;;;3.88;65.51;99012.69;5048580;28;20041;-81
2023/01/28 11:28:06;;;;;;;;;;;;;;;3.97;64.91;99014.50;5038031;28;20095;-81
2023/01/28 11:30:39;;;;;;;4.40;2.72;;;;;;;4.02;64.80;99004.53;5029885;28;19951;-81
2023/01/28 11:33:22;;;;;;;5.80;2.47;;;;;;;3.73;64.11;98993.28;5044333;28;20467;-82
2023/01/28 11:36:04;;;;;;;2.65;2.45;;;;;;;3.72;64.44;99004.63;5048229;28;20104;-82
2023/01/28 11:38:30;;;;;;;2.95;2.58;;;;;;;3.83;64.99;99006.25;5047137;28;20039;-81
2023/01/28 11:40:59;;;;;;;2.70;2.30;;;;;;;4.01;65.60;99008.06;5048420;28;20029;-81
2023/01/28 11:43:29;;;;;;;3.08;2.72;;;;;;;4.18;64.43;99019.56;5048507;28;20033;-81
2023/01/28 11:46:26;;;;;;;4.63;2.80;;;;;;;3.95;64.92;99006.00;5047698;28;20035;-82
2023/01/28 11:49:11;;;;;;;4.40;3.00;;;;;;;4.09;64.88;99004.00;5047895;28;20104;-82
2023/01/28 11:52:05;;;;;;;4.28;2.83;;;;;;;4.30;64.71;99002.06;5047838;28;20507;-81
2023/01/28 11:54:53;;;;;;;4.20;2.83;;;;;;;4.57;64.33;99002.19;5031124;28;20049;-82
2023/01/28 11:57:26;;;;;;;5.40;3.15;;;;;;;4.47;63.02;98996.16;5028863;28;20037;-81
2023/01/28 12:00:18;;;;;;;4.40;3.42;;;;;;;4.35;62.67;99007.66;5028200;28;20037;-81
2023/01/28 12:03:01;;;;;;;4.15;3.10;;;;;;;4.01;62.36;99000.28;5045985;28;20033;-81
2023/01/28 12:05:50;;;;;;;6.32;3.42;;;;;;;3.97;63.76;98998.09;5047600;28;20523;-81
2023/01/28 12:08:59;;;;;;;6.05;3.33;;;;;;;3.94;64.82;99003.56;5047649;28;20051;-81
2023/01/28 12:15:20;;;;;;;3.25;2.60;;;;;;;3.88;66.20;99004.91;4980897;28;20042;-81
2023/01/28 12:18:53;;;;;;;5.82;2.88;;;;;;;3.94;65.19;99009.56;4981102;28;20038;-81
2023/01/28 12:21:55;;;;;;;3.83;3.15;;;;;;;4.00;65.02;99006.44;5046318;28;20040;-81
2023/01/28 12:24:36;;;;;;;4.53;2.72;;;;;;;3.98;65.18;98999.75;5032097;28;20119;-81
2023/01/28 12:27:27;;;;;;;3.25;2.78;;;;;;;3.83;64.16;99001.06;5050149;28;20082;-81
2023/01/28 12:30:08;;;;;;;5.53;2.60;;;;;;;3.82;64.66;98999.44;5051036;28;20044;-81
2023/01/28 12:33:30;;;;;;;3.93;2.93;;;;;;;3.69;64.63;99000.50;5047958;28;20033;-81